Time;durP1;ratioP1;P1;durP2;ratioP2;P2;SDS_P1;SDS_P2;PMS_P1;PMS_P2;Temp;Humidity;BMP_temperature;BMP_pressure;BME280_temperature;BME280_humidity;BME280_pressure;Samples;Min_cycle;Max_cycle;Signal;HPM_P1;HPM_P2
2021/10/23 00:00:59;;;;;;;12.43;11.03;;;;;;;;;;4937486;29;20204;-88
2021/10/23 00:03:26;;;;;;;11.90;10.53;;;;;;;;;;4938389;29;20265;-89
2021/10/23 00:05:54;;;;;;;11.60;10.37;;;;;;;;;;4938693;29;20600;-88
2021/10/23 00:08:21;;;;;;;11.83;10.67;;;;;;;;;;4938397;29;20195;-89
2021/10/23 00:10:48;;;;;;;14.57;10.30;;;;;;;;;;4938105;29;20313;-88
2021/10/23 00:13:16;;;;;;;12.23;11.13;;;;;;;;;;4938372;29;20233;-88
2021/10/23 00:15:45;;;;;;;12.57;11.23;;;;;;;;;;4938117;29;20293;-88
2021/10/23 00:18:12;;;;;;;13.13;10.53;;;;;;;;;;4938236;29;20324;-88
2021/10/23 00:20:42;;;;;;;11.60;10.47;;;;;;;;;;4937943;29;20671;-89
2021/10/23 00:23:10;;;;;;;12.30;11.13;;;;;;;;;;4937902;29;20234;-89
2021/10/23 00:25:37;;;;;;;10.60;9.53;;;;;;;;;;4937919;29;20234;-88
2021/10/23 00:28:05;;;;;;;13.03;11.03;;;;;;;;;;4937955;29;20198;-88
2021/10/23 00:30:32;;;;;;;12.03;10.77;;;;;;;;;;4937583;29;20293;-88
2021/10/23 00:33:02;;;;;;;12.23;10.07;;;;;;;;;;4937873;29;20213;-88
2021/10/23 00:35:33;;;;;;;12.13;10.93;;;;;;;;;;4937519;29;20186;-87
2021/10/23 00:38:01;;;;;;;11.57;10.47;;;;;;;;;;4937630;29;20202;-88
2021/10/23 00:40:29;;;;;;;10.97;9.87;;;;;;;;;;4937351;29;20206;-87
2021/10/23 00:42:59;;;;;;;11.73;10.30;;;;;;;;;;4937300;29;20706;-87
2021/10/23 00:45:26;;;;;;;11.87;9.90;;;;;;;;;;4937675;29;20217;-88
2021/10/23 00:47:54;;;;;;;11.93;10.83;;;;;;;;;;4936906;29;20277;-87
2021/10/23 00:50:23;;;;;;;11.70;10.50;;;;;;;;;;4937170;29;20211;-88
2021/10/23 00:52:51;;;;;;;11.83;10.63;;;;;;;;;;4936830;29;20282;-87
2021/10/23 00:55:18;;;;;;;16.03;11.17;;;;;;;;;;4937202;29;20191;-87
2021/10/23 00:57:49;;;;;;;12.13;10.07;;;;;;;;;;4937034;29;20227;-87
2021/10/23 01:00:16;;;;;;;11.63;10.53;;;;;;;;;;4937151;29;20660;-87
2021/10/23 01:02:44;;;;;;;11.30;10.20;;;;;;;;;;4936958;29;20635;-87
2021/10/23 01:05:12;;;;;;;11.40;10.30;;;;;;;;;;4936888;29;20202;-88
2021/10/23 01:07:41;;;;;;;12.07;9.90;;;;;;;;;;4937093;29;20206;-88
2021/10/23 01:10:11;;;;;;;12.17;10.70;;;;;;;;;;4936662;29;20258;-87
2021/10/23 01:12:40;;;;;;;10.77;9.77;;;;;;;;;;4936099;29;20269;-87
2021/10/23 01:15:26;;;;;;;10.40;9.40;;;;;;;;;;4936669;29;20734;-87
2021/10/23 01:17:54;;;;;;;9.27;8.47;;;;;;;;;;4936862;29;20294;-87
2021/10/23 01:20:24;;;;;;;10.27;9.33;;;;;;;;;;4936575;29;20217;-87
2021/10/23 01:22:52;;;;;;;11.23;9.30;;;;;;;;;;4936927;29;20203;-87
2021/10/23 01:25:21;;;;;;;10.67;9.67;;;;;;;;;;4936515;29;20207;-88
2021/10/23 01:27:51;;;;;;;11.10;10.03;;;;;;;;;;4936720;29;20207;-88
2021/10/23 01:30:19;;;;;;;11.53;10.33;;;;;;;;;;4936258;29;20301;-87
2021/10/23 01:32:47;;;;;;;11.33;10.17;;;;;;;;;;4936296;29;20249;-88
2021/10/23 01:35:14;;;;;;;11.07;9.97;;;;;;;;;;4936485;29;20202;-87
2021/10/23 01:37:45;;;;;;;10.27;9.17;;;;;;;;;;4936413;29;20675;-87
2021/10/23 01:40:14;;;;;;;10.53;9.53;;;;;;;;;;4936556;29;20203;-87
2021/10/23 01:42:42;;;;;;;10.93;9.90;;;;;;;;;;4936383;29;20230;-86
2021/10/23 01:45:11;;;;;;;10.80;9.70;;;;;;;;;;4936452;29;20231;-87
2021/10/23 01:47:39;;;;;;;10.50;9.40;;;;;;;;;;4936123;29;20668;-87
2021/10/23 01:50:08;;;;;;;11.90;9.97;;;;;;;;;;4936185;29;20210;-87
2021/10/23 01:52:35;;;;;;;10.87;9.77;;;;;;;;;;4936118;29;20317;-87
2021/10/23 01:55:05;;;;;;;12.43;10.37;;;;;;;;;;4935932;29;20633;-87
2021/10/23 01:57:32;;;;;;;11.80;10.63;;;;;;;;;;4936084;29;20202;-87
2021/10/23 02:00:00;;;;;;;12.50;11.23;;;;;;;;;;4936077;29;20254;-86
2021/10/23 02:02:27;;;;;;;12.73;11.17;;;;;;;;;;4935654;29;20199;-86
2021/10/23 02:04:55;;;;;;;12.40;11.20;;;;;;;;;;4935791;29;20555;-86
2021/10/23 02:07:22;;;;;;;12.57;11.27;;;;;;;;;;4935809;29;20206;-86
2021/10/23 02:09:49;;;;;;;11.00;9.93;;;;;;;;;;4935628;29;20207;-86
2021/10/23 02:12:18;;;;;;;12.53;10.83;;;;;;;;;;4935356;29;20261;-86
2021/10/23 02:14:46;;;;;;;8.90;8.07;;;;;;;;;;4935466;29;20210;-85
2021/10/23 02:17:13;;;;;;;11.77;10.03;;;;;;;;;;4935483;29;20578;-86
2021/10/23 02:19:41;;;;;;;10.23;9.17;;;;;;;;;;4935372;29;20289;-86
2021/10/23 02:22:08;;;;;;;12.13;9.20;;;;;;;;;;4935484;29;20230;-86
2021/10/23 02:24:35;;;;;;;10.60;9.60;;;;;;;;;;4934489;29;20206;-87
2021/10/23 02:27:03;;;;;;;9.83;8.93;;;;;;;;;;4935042;29;20277;-86
2021/10/23 02:29:32;;;;;;;9.63;8.73;;;;;;;;;;4935328;29;20664;-86
2021/10/23 02:31:59;;;;;;;12.17;10.73;;;;;;;;;;4935094;29;20231;-86
2021/10/23 02:34:27;;;;;;;13.63;10.53;;;;;;;;;;4935059;29;20202;-86
2021/10/23 02:36:54;;;;;;;14.20;11.10;;;;;;;;;;4935100;29;20262;-87
2021/10/23 02:39:21;;;;;;;11.07;9.87;;;;;;;;;;4935661;29;20206;-87
2021/10/23 02:41:49;;;;;;;12.97;9.83;;;;;;;;;;4935333;29;20238;-86
2021/10/23 02:44:16;;;;;;;11.97;10.07;;;;;;;;;;4935010;29;20238;-86
2021/10/23 02:46:45;;;;;;;9.60;8.60;;;;;;;;;;4935328;29;20201;-87
2021/10/23 02:49:13;;;;;;;10.13;9.23;;;;;;;;;;4935081;29;20202;-86
2021/10/23 02:51:40;;;;;;;10.50;9.40;;;;;;;;;;4934815;29;20226;-87
2021/10/23 02:54:08;;;;;;;10.87;9.37;;;;;;;;;;4935029;29;20202;-87
2021/10/23 02:56:35;;;;;;;9.83;8.90;;;;;;;;;;4934997;29;20206;-87
2021/10/23 02:59:02;;;;;;;12.37;10.80;;;;;;;;;;4934873;29;20676;-86
2021/10/23 03:01:30;;;;;;;10.47;9.47;;;;;;;;;;4934894;29;20305;-85
2021/10/23 03:03:59;;;;;;;9.90;9.00;;;;;;;;;;4934798;29;20202;-86
2021/10/23 03:06:26;;;;;;;10.63;9.60;;;;;;;;;;4934997;29;20299;-86
2021/10/23 03:08:54;;;;;;;11.53;10.20;;;;;;;;;;4935130;29;20213;-85
2021/10/23 03:11:21;;;;;;;11.63;10.43;;;;;;;;;;4934818;29;20203;-85
2021/10/23 03:13:48;;;;;;;10.17;9.17;;;;;;;;;;4934683;29;20203;-87
2021/10/23 03:16:16;;;;;;;14.57;9.27;;;;;;;;;;4934897;29;20616;-86
2021/10/23 03:18:43;;;;;;;11.20;9.73;;;;;;;;;;4934747;29;20672;-86
2021/10/23 03:21:12;;;;;;;10.90;9.90;;;;;;;;;;4934829;29;20203;-86
2021/10/23 03:23:39;;;;;;;11.93;10.73;;;;;;;;;;4934634;29;20289;-86
2021/10/23 03:26:07;;;;;;;11.03;9.93;;;;;;;;;;4935316;29;20286;-86
2021/10/23 03:28:37;;;;;;;10.50;9.50;;;;;;;;;;4934937;29;20645;-87
2021/10/23 03:31:05;;;;;;;19.63;17.73;;;;;;;;;;4934343;29;20237;-86
2021/10/23 03:33:32;;;;;;;18.87;17.07;;;;;;;;;;4934888;29;20236;-87
2021/10/23 03:35:59;;;;;;;15.67;14.07;;;;;;;;;;4937843;29;20217;-87
2021/10/23 03:38:28;;;;;;;21.23;19.13;;;;;;;;;;4938941;29;20582;-86
2021/10/23 03:40:55;;;;;;;25.50;22.87;;;;;;;;;;4938173;29;20274;-85
2021/10/23 03:43:23;;;;;;;13.47;12.23;;;;;;;;;;4938570;29;20286;-86
2021/10/23 03:45:50;;;;;;;12.40;11.10;;;;;;;;;;4938353;29;20628;-86
2021/10/23 03:48:17;;;;;;;15.17;13.67;;;;;;;;;;4938345;29;20643;-85
2021/10/23 03:50:45;;;;;;;20.20;18.03;;;;;;;;;;4937867;29;20233;-86
2021/10/23 03:53:13;;;;;;;15.60;14.20;;;;;;;;;;4937990;29;20226;-85
2021/10/23 03:55:41;;;;;;;17.83;16.03;;;;;;;;;;4938335;29;20609;-86
2021/10/23 03:58:10;;;;;;;54.87;37.87;;;;;;;;;;4938152;29;20203;-86
2021/10/23 04:00:37;;;;;;;49.43;34.17;;;;;;;;;;4938238;29;20229;-86
2021/10/23 04:03:07;;;;;;;262.33;153.97;;;;;;;;;;4937960;29;20205;-86
2021/10/23 04:05:35;;;;;;;87.37;53.30;;;;;;;;;;4937512;29;20207;-86
2021/10/23 04:08:02;;;;;;;83.93;49.57;;;;;;;;;;4938145;29;20672;-86
2021/10/23 04:10:30;;;;;;;126.83;81.97;;;;;;;;;;4937525;29;20218;-85
2021/10/23 04:12:58;;;;;;;41.63;29.83;;;;;;;;;;4937598;29;20321;-86
2021/10/23 04:15:26;;;;;;;15.43;13.87;;;;;;;;;;4938000;29;20631;-86
2021/10/23 04:17:53;;;;;;;12.27;10.97;;;;;;;;;;4937632;29;20209;-85
2021/10/23 04:20:20;;;;;;;11.60;10.50;;;;;;;;;;4937714;29;20657;-86
2021/10/23 04:22:48;;;;;;;10.43;9.43;;;;;;;;;;4938123;29;20198;-87
2021/10/23 04:25:15;;;;;;;10.90;9.70;;;;;;;;;;4938402;29;20241;-87
2021/10/23 04:27:43;;;;;;;11.57;10.47;;;;;;;;;;4937884;29;20261;-87
2021/10/23 04:30:12;;;;;;;13.67;10.67;;;;;;;;;;4937361;29;20238;-87
2021/10/23 04:32:39;;;;;;;9.90;8.90;;;;;;;;;;4936996;29;20321;-87
2021/10/23 04:35:08;;;;;;;10.10;9.20;;;;;;;;;;4937037;29;20234;-87
2021/10/23 04:37:35;;;;;;;10.90;9.90;;;;;;;;;;4945401;29;20297;-85
2021/10/23 04:40:02;;;;;;;10.27;9.27;;;;;;;;;;4955758;29;20197;-85
2021/10/23 04:42:29;;;;;;;10.63;9.53;;;;;;;;;;4955980;29;20223;-85
2021/10/23 04:44:57;;;;;;;10.80;9.73;;;;;;;;;;4944608;29;20583;-85
2021/10/23 04:47:25;;;;;;;11.77;10.67;;;;;;;;;;4951186;29;20205;-85
2021/10/23 04:49:53;;;;;;;15.07;10.97;;;;;;;;;;4955734;29;20200;-85
2021/10/23 04:52:20;;;;;;;10.37;9.33;;;;;;;;;;4955656;29;20805;-85
2021/10/23 04:54:47;;;;;;;12.33;11.03;;;;;;;;;;4955811;29;20194;-85
2021/10/23 04:57:14;;;;;;;10.30;9.20;;;;;;;;;;4955605;29;20232;-85
2021/10/23 04:59:42;;;;;;;13.87;9.80;;;;;;;;;;4955513;29;20206;-85
2021/10/23 05:02:09;;;;;;;13.43;10.77;;;;;;;;;;4955964;29;20198;-87
2021/10/23 05:04:37;;;;;;;13.47;9.97;;;;;;;;;;4956208;29;20205;-86
2021/10/23 05:07:05;;;;;;;10.17;9.17;;;;;;;;;;4955887;29;20198;-86
2021/10/23 05:09:32;;;;;;;10.30;9.20;;;;;;;;;;4955770;29;20228;-88
2021/10/23 05:11:59;;;;;;;10.87;9.77;;;;;;;;;;4955757;29;20261;-87
2021/10/23 05:14:26;;;;;;;10.37;9.40;;;;;;;;;;4956256;29;20757;-88
2021/10/23 05:16:54;;;;;;;13.83;11.67;;;;;;;;;;4956075;29;20207;-88
2021/10/23 05:19:21;;;;;;;36.97;25.63;;;;;;;;;;4956283;29;20201;-87
2021/10/23 05:21:50;;;;;;;39.30;25.23;;;;;;;;;;4955913;29;20233;-87
2021/10/23 05:24:17;;;;;;;21.07;15.23;;;;;;;;;;4956015;29;20202;-87
2021/10/23 05:26:44;;;;;;;20.37;14.57;;;;;;;;;;4955773;29;20212;-87
2021/10/23 05:29:11;;;;;;;13.50;10.53;;;;;;;;;;4955444;29;20269;-87
2021/10/23 05:31:39;;;;;;;14.00;12.50;;;;;;;;;;4954983;29;20214;-88
2021/10/23 05:34:06;;;;;;;14.37;12.80;;;;;;;;;;4955002;29;20642;-87
2021/10/23 05:36:33;;;;;;;15.60;13.97;;;;;;;;;;4954614;29;20198;-88
2021/10/23 05:39:02;;;;;;;23.70;16.60;;;;;;;;;;4955041;29;20586;-87
2021/10/23 05:41:29;;;;;;;19.63;15.30;;;;;;;;;;4954870;29;20202;-88
2021/10/23 05:43:56;;;;;;;19.13;15.93;;;;;;;;;;4955079;29;20206;-87
2021/10/23 05:46:24;;;;;;;19.17;17.17;;;;;;;;;;4954436;29;20202;-88
2021/10/23 05:48:51;;;;;;;17.80;15.13;;;;;;;;;;4955089;29;20284;-87
2021/10/23 05:51:18;;;;;;;18.63;16.20;;;;;;;;;;4954224;29;20201;-88
2021/10/23 05:53:46;;;;;;;21.43;18.17;;;;;;;;;;4954377;29;20235;-87
2021/10/23 05:56:14;;;;;;;20.20;15.97;;;;;;;;;;4954692;29;20229;-88
2021/10/23 05:58:42;;;;;;;23.80;18.03;;;;;;;;;;4954472;28;20205;-87
2021/10/23 06:01:09;;;;;;;19.60;14.93;;;;;;;;;;4954634;29;20194;-87
2021/10/23 06:03:38;;;;;;;18.73;16.03;;;;;;;;;;4954431;29;20197;-88
2021/10/23 06:06:06;;;;;;;19.77;17.67;;;;;;;;;;4954822;29;20571;-88
2021/10/23 06:08:34;;;;;;;18.73;16.07;;;;;;;;;;4954421;29;20241;-88
2021/10/23 06:11:01;;;;;;;20.60;15.43;;;;;;;;;;4954392;29;20253;-87
2021/10/23 06:13:31;;;;;;;15.90;13.23;;;;;;;;;;4954536;29;20629;-89
2021/10/23 06:15:58;;;;;;;13.17;11.57;;;;;;;;;;4954128;29;20205;-88
2021/10/23 06:18:26;;;;;;;12.17;10.97;;;;;;;;;;4954544;29;20203;-88
2021/10/23 06:20:53;;;;;;;12.60;11.40;;;;;;;;;;4954282;29;20205;-88
2021/10/23 06:23:20;;;;;;;16.07;11.97;;;;;;;;;;4954376;29;20241;-88
2021/10/23 06:25:47;;;;;;;15.73;11.57;;;;;;;;;;4954581;29;20233;-88
2021/10/23 06:28:15;;;;;;;15.20;13.07;;;;;;;;;;4954544;29;20656;-88
2021/10/23 06:30:44;;;;;;;18.10;12.63;;;;;;;;;;4908904;29;1328792;-88
2021/10/23 06:33:11;;;;;;;12.00;10.70;;;;;;;;;;4954663;29;20265;-87
2021/10/23 06:35:38;;;;;;;13.47;12.17;;;;;;;;;;4955033;29;20206;-88
2021/10/23 06:38:06;;;;;;;13.80;12.40;;;;;;;;;;4955026;29;20241;-88
2021/10/23 06:40:33;;;;;;;15.10;12.13;;;;;;;;;;4954840;29;20208;-88
2021/10/23 06:43:00;;;;;;;14.07;12.67;;;;;;;;;;4954870;29;20286;-88
2021/10/23 06:45:27;;;;;;;15.30;12.07;;;;;;;;;;4954905;29;20264;-88
2021/10/23 06:47:57;;;;;;;11.20;10.00;;;;;;;;;;4954723;29;20251;-88
2021/10/23 06:50:24;;;;;;;11.97;10.87;;;;;;;;;;4954839;29;20613;-88
2021/10/23 06:52:51;;;;;;;11.87;10.70;;;;;;;;;;4954532;29;20724;-87
2021/10/23 06:55:19;;;;;;;11.00;10.00;;;;;;;;;;4954490;29;20203;-87
2021/10/23 06:57:46;;;;;;;10.63;9.63;;;;;;;;;;4954459;29;20267;-87
2021/10/23 07:00:15;;;;;;;11.90;10.30;;;;;;;;;;4954520;29;20236;-90
2021/10/23 07:02:43;;;;;;;10.43;9.43;;;;;;;;;;4954905;29;20235;-89
2021/10/23 07:05:13;;;;;;;10.70;9.70;;;;;;;;;;4955349;29;20327;-89
2021/10/23 07:07:41;;;;;;;11.73;9.63;;;;;;;;;;4954695;29;20202;-88
2021/10/23 07:10:09;;;;;;;11.93;10.53;;;;;;;;;;4956271;28;20241;-89
2021/10/23 07:12:37;;;;;;;12.47;10.27;;;;;;;;;;4958642;29;20207;-89
2021/10/23 07:15:05;;;;;;;32.13;12.57;;;;;;;;;;4958692;29;20202;-88
2021/10/23 07:17:33;;;;;;;14.63;10.90;;;;;;;;;;4958876;29;20288;-89
2021/10/23 07:20:00;;;;;;;15.20;10.90;;;;;;;;;;4958745;29;20232;-88
2021/10/23 07:22:29;;;;;;;11.63;10.40;;;;;;;;;;4958663;29;20260;-89
2021/10/23 07:24:56;;;;;;;16.70;11.90;;;;;;;;;;4958269;29;20284;-90
2021/10/23 07:27:23;;;;;;;12.80;11.03;;;;;;;;;;4958890;29;20284;-90
2021/10/23 07:29:51;;;;;;;14.23;11.87;;;;;;;;;;4958036;28;20233;-89
2021/10/23 07:32:18;;;;;;;24.70;11.90;;;;;;;;;;4958153;29;20245;-90
2021/10/23 07:34:45;;;;;;;13.60;12.00;;;;;;;;;;4958108;29;20313;-89
2021/10/23 07:37:12;;;;;;;12.20;10.97;;;;;;;;;;4958367;29;20193;-90
2021/10/23 07:39:41;;;;;;;14.10;10.80;;;;;;;;;;4958453;29;20684;-89
2021/10/23 07:42:09;;;;;;;12.80;10.50;;;;;;;;;;4958474;29;20266;-90
2021/10/23 07:44:36;;;;;;;12.33;9.97;;;;;;;;;;4958173;29;20200;-91
2021/10/23 07:47:04;;;;;;;12.03;10.13;;;;;;;;;;4957896;29;20210;-90
2021/10/23 07:49:31;;;;;;;9.93;8.93;;;;;;;;;;4958136;29;20271;-89
2021/10/23 07:51:59;;;;;;;8.93;8.13;;;;;;;;;;4957739;29;20240;-90
2021/10/23 07:54:26;;;;;;;8.77;7.97;;;;;;;;;;4957792;29;20799;-90
2021/10/23 07:56:57;;;;;;;8.63;7.83;;;;;;;;;;4957907;29;20202;-89
2021/10/23 07:59:26;;;;;;;9.70;7.13;;;;;;;;;;4957813;29;20194;-89
2021/10/23 08:01:53;;;;;;;8.03;6.23;;;;;;;;;;4957988;29;20238;-90
2021/10/23 08:04:21;;;;;;;6.73;5.37;;;;;;;;;;4957979;29;20289;-90
2021/10/23 08:06:49;;;;;;;6.17;5.23;;;;;;;;;;4958007;29;20302;-91
2021/10/23 08:09:18;;;;;;;6.70;6.10;;;;;;;;;;4957752;29;20229;-91
2021/10/23 08:11:46;;;;;;;6.50;5.90;;;;;;;;;;4957848;29;20198;-90
2021/10/23 08:14:15;;;;;;;7.00;6.23;;;;;;;;;;4957645;29;20280;-91
2021/10/23 08:16:42;;;;;;;6.00;5.50;;;;;;;;;;4957794;29;20205;-90
2021/10/23 08:19:10;;;;;;;9.23;6.37;;;;;;;;;;4958160;29;20202;-90
2021/10/23 08:21:38;;;;;;;6.50;5.90;;;;;;;;;;4956309;28;20202;-89
2021/10/23 08:24:06;;;;;;;7.17;6.23;;;;;;;;;;4958249;29;20235;-90
2021/10/23 08:26:33;;;;;;;13.33;6.40;;;;;;;;;;4957391;29;20193;-88
2021/10/23 08:29:00;;;;;;;7.40;6.60;;;;;;;;;;4957110;28;20293;-90
2021/10/23 08:31:31;;;;;;;5.80;5.23;;;;;;;;;;4957641;29;20208;-90
2021/10/23 08:33:58;;;;;;;7.07;5.33;;;;;;;;;;4957383;29;20256;-89
2021/10/23 08:36:26;;;;;;;7.43;5.77;;;;;;;;;;4957394;29;20249;-89
2021/10/23 08:38:54;;;;;;;15.73;6.67;;;;;;;;;;4957640;29;20199;-90
2021/10/23 08:41:21;;;;;;;5.70;5.20;;;;;;;;;;4957194;29;20219;-90
2021/10/23 08:43:49;;;;;;;8.03;6.80;;;;;;;;;;4957342;29;20293;-90
2021/10/23 08:46:21;;;;;;;9.57;8.67;;;;;;;;;;4956861;29;20202;-90
2021/10/23 08:48:50;;;;;;;6.30;5.80;;;;;;;;;;4957169;29;20197;-90
2021/10/23 08:51:17;;;;;;;7.27;6.57;;;;;;;;;;4957393;29;20292;-90
2021/10/23 08:53:44;;;;;;;6.17;5.67;;;;;;;;;;4956747;29;20698;-90
2021/10/23 08:56:12;;;;;;;7.50;5.70;;;;;;;;;;4956621;29;20642;-90
2021/10/23 08:58:43;;;;;;;5.40;4.67;;;;;;;;;;4957061;29;20208;-90
2021/10/23 09:01:13;;;;;;;5.90;5.30;;;;;;;;;;4956443;29;20217;-90
2021/10/23 09:03:42;;;;;;;5.33;4.67;;;;;;;;;;4956995;29;20206;-90
2021/10/23 09:06:15;;;;;;;4.80;4.37;;;;;;;;;;4957006;29;20233;-90
2021/10/23 09:09:00;;;;;;;4.97;4.57;;;;;;;;;;4956906;29;20190;-90
2021/10/23 09:11:35;;;;;;;6.67;6.07;;;;;;;;;;4956834;29;20629;-90
2021/10/23 09:14:25;;;;;;;13.17;7.90;;;;;;;;;;4956444;29;20247;-90
2021/10/23 09:17:04;;;;;;;9.53;8.60;;;;;;;;;;4956458;29;20634;-89
2021/10/23 09:19:33;;;;;;;13.77;8.43;;;;;;;;;;4956867;29;20639;-89
2021/10/23 09:22:02;;;;;;;9.20;8.30;;;;;;;;;;4956557;29;20209;-90
2021/10/23 09:24:30;;;;;;;7.97;7.23;;;;;;;;;;4956074;29;20659;-89
2021/10/23 09:26:57;;;;;;;15.10;8.60;;;;;;;;;;4955991;29;20228;-87
2021/10/23 09:29:26;;;;;;;9.20;7.10;;;;;;;;;;4955838;28;20276;-88
2021/10/23 09:31:54;;;;;;;11.67;9.47;;;;;;;;;;4955691;28;20272;-87
2021/10/23 09:34:24;;;;;;;10.87;7.67;;;;;;;;;;4954394;29;20280;-88
2021/10/23 09:36:53;;;;;;;11.43;7.73;;;;;;;;;;4937024;29;20238;-89
2021/10/23 09:39:32;;;;;;;11.50;8.17;;;;;;;;;;4936536;29;20262;-89
2021/10/23 09:42:12;;;;;;;8.30;7.50;;;;;;;;;;4936975;29;20254;-89
2021/10/23 09:44:53;;;;;;;10.47;9.37;;;;;;;;;;4936750;29;20221;-89
2021/10/23 09:47:20;;;;;;;13.97;8.83;;;;;;;;;;4946221;29;20601;-89
2021/10/23 09:50:09;;;;;;;14.57;10.00;;;;;;;;;;4955932;29;20257;-89
2021/10/23 09:53:00;;;;;;;10.67;8.83;;;;;;;;;;4955532;29;20201;-88
2021/10/23 09:55:30;;;;;;;8.37;7.67;;;;;;;;;;4955766;29;20690;-89
2021/10/23 09:58:18;;;;;;;18.50;11.07;;;;;;;;;;4955753;29;20196;-90
2021/10/23 10:00:48;;;;;;;8.60;7.80;;;;;;;;;;4955696;29;20197;-88
2021/10/23 10:03:16;;;;;;;11.27;9.87;;;;;;;;;;4955279;29;20206;-87
2021/10/23 10:05:43;;;;;;;13.87;12.10;;;;;;;;;;4955630;29;20635;-87
2021/10/23 10:08:12;;;;;;;12.60;8.47;;;;;;;;;;4955624;29;20264;-88
2021/10/23 10:10:42;;;;;;;8.80;7.57;;;;;;;;;;4955310;29;20281;-88
2021/10/23 10:13:10;;;;;;;10.13;8.77;;;;;;;;;;4955761;29;20723;-88
2021/10/23 10:15:38;;;;;;;12.40;10.07;;;;;;;;;;4954770;29;20529;-89
2021/10/23 10:18:07;;;;;;;14.90;10.47;;;;;;;;;;4955169;29;20203;-88
2021/10/23 10:20:36;;;;;;;10.77;9.10;;;;;;;;;;4955696;29;20229;-89
2021/10/23 10:23:05;;;;;;;9.90;8.33;;;;;;;;;;4955312;29;20213;-89
2021/10/23 10:25:32;;;;;;;8.87;8.07;;;;;;;;;;4955276;29;20634;-89
2021/10/23 10:28:13;;;;;;;10.60;9.10;;;;;;;;;;4955151;29;20622;-89
2021/10/23 10:30:45;;;;;;;13.77;11.13;;;;;;;;;;4954899;29;20243;-90
2021/10/23 10:33:25;;;;;;;12.13;10.23;;;;;;;;;;4955305;29;20229;-90
2021/10/23 10:36:20;;;;;;;8.33;7.50;;;;;;;;;;4954938;29;20209;-90
2021/10/23 10:44:12;;;;;;;14.13;10.67;;;;;;;;;;4954242;28;20192;-90
2021/10/23 10:47:08;;;;;;;10.67;8.60;;;;;;;;;;4954943;29;20655;-89
2021/10/23 10:49:53;;;;;;;13.60;10.27;;;;;;;;;;4955014;29;20206;-89
2021/10/23 10:53:00;;;;;;;13.33;10.47;;;;;;;;;;4955167;29;20212;-90
2021/10/23 10:55:39;;;;;;;8.73;7.77;;;;;;;;;;4955058;29;20585;-90
2021/10/23 10:58:06;;;;;;;12.27;8.17;;;;;;;;;;4955100;29;20193;-91
2021/10/23 11:01:11;;;;;;;21.60;15.40;;;;;;;;;;4955015;29;20214;-90
2021/10/23 11:03:44;;;;;;;20.37;16.03;;;;;;;;;;4954965;29;20198;-90
2021/10/23 11:06:54;;;;;;;11.57;9.80;;;;;;;;;;4954730;29;20185;-90
2021/10/23 11:09:41;;;;;;;10.67;9.47;;;;;;;;;;4954488;29;20194;-89
2021/10/23 11:12:27;;;;;;;20.43;11.60;;;;;;;;;;4954852;29;20264;-90
2021/10/23 11:14:54;;;;;;;16.30;12.40;;;;;;;;;;4954823;29;20209;-90
2021/10/23 11:17:21;;;;;;;12.93;10.83;;;;;;;;;;4955054;29;20205;-89
2021/10/23 11:19:52;;;;;;;10.03;8.47;;;;;;;;;;4954929;29;20578;-90
2021/10/23 11:22:21;;;;;;;14.17;11.57;;;;;;;;;;4954648;29;20201;-90
2021/10/23 11:24:50;;;;;;;17.40;11.57;;;;;;;;;;4954838;29;20687;-90
2021/10/23 11:27:35;;;;;;;9.40;7.03;;;;;;;;;;4954461;29;20686;-90
2021/10/23 11:30:22;;;;;;;28.37;25.20;;;;;;;;;;4954451;28;20233;-90
2021/10/23 11:32:56;;;;;;;9.10;8.20;;;;;;;;;;4954434;29;20205;-89
2021/10/23 11:35:39;;;;;;;8.30;7.50;;;;;;;;;;4954790;29;20297;-89
2021/10/23 11:38:08;;;;;;;8.63;7.93;;;;;;;;;;4954385;29;20197;-89
2021/10/23 11:40:37;;;;;;;10.83;6.87;;;;;;;;;;4954359;29;20289;-89
2021/10/23 11:43:05;;;;;;;7.27;6.67;;;;;;;;;;4954406;29;20213;-89
2021/10/23 11:45:33;;;;;;;8.13;7.43;;;;;;;;;;4954645;29;20232;-89
2021/10/23 11:48:05;;;;;;;9.00;7.03;;;;;;;;;;4954499;29;20599;-89
2021/10/23 11:50:34;;;;;;;8.87;8.03;;;;;;;;;;4954469;29;20212;-89
2021/10/23 11:53:04;;;;;;;8.40;7.40;;;;;;;;;;4954329;29;20202;-89
2021/10/23 11:55:35;;;;;;;9.00;7.97;;;;;;;;;;4954823;28;20213;-89
2021/10/23 11:58:05;;;;;;;8.70;7.30;;;;;;;;;;4957750;29;20189;-89
2021/10/23 12:00:35;;;;;;;8.53;6.63;;;;;;;;;;4957777;29;20194;-90
2021/10/23 12:03:05;;;;;;;7.53;6.83;;;;;;;;;;4957913;29;20198;-88
2021/10/23 12:05:43;;;;;;;7.70;6.90;;;;;;;;;;4957734;29;20205;-89
2021/10/23 12:08:33;;;;;;;8.47;7.60;;;;;;;;;;4957352;29;20193;-89
2021/10/23 12:11:09;;;;;;;10.67;8.33;;;;;;;;;;4957689;29;20314;-88
2021/10/23 12:14:05;;;;;;;8.20;7.50;;;;;;;;;;4945137;29;20619;-88
2021/10/23 12:16:37;;;;;;;8.50;7.30;;;;;;;;;;4940084;29;20285;-89
2021/10/23 12:19:14;;;;;;;11.00;7.60;;;;;;;;;;4957511;29;20213;-90
2021/10/23 12:21:54;;;;;;;8.13;7.13;;;;;;;;;;4957423;29;20190;-89
2021/10/23 12:24:33;;;;;;;9.23;7.17;;;;;;;;;;4946627;29;20222;-89
2021/10/23 12:27:20;;;;;;;8.73;7.03;;;;;;;;;;4938123;29;20337;-91
2021/10/23 12:29:49;;;;;;;7.27;6.60;;;;;;;;;;4938227;29;20274;-89
2021/10/23 12:32:17;;;;;;;9.03;6.93;;;;;;;;;;4954316;29;20206;-89
2021/10/23 12:35:05;;;;;;;7.57;6.80;;;;;;;;;;4957569;29;20666;-89
2021/10/23 12:37:37;;;;;;;11.10;7.97;;;;;;;;;;4938070;29;20214;-89
2021/10/23 12:40:10;;;;;;;10.20;6.67;;;;;;;;;;4938255;29;20226;-88
2021/10/23 12:42:40;;;;;;;8.40;7.63;;;;;;;;;;4938142;29;20191;-90
2021/10/23 12:45:09;;;;;;;9.77;7.37;;;;;;;;;;4938167;29;20206;-89
2021/10/23 12:47:36;;;;;;;8.37;7.23;;;;;;;;;;4937849;29;20206;-90
2021/10/23 12:50:04;;;;;;;8.00;7.20;;;;;;;;;;4937620;29;20203;-89
2021/10/23 12:52:31;;;;;;;8.57;7.27;;;;;;;;;;4937817;29;20221;-90
2021/10/23 12:54:59;;;;;;;10.23;9.33;;;;;;;;;;4937593;29;20233;-91
2021/10/23 12:57:29;;;;;;;7.83;7.03;;;;;;;;;;4938275;29;20274;-91
2021/10/23 12:59:56;;;;;;;9.20;7.57;;;;;;;;;;4938457;29;20202;-90
2021/10/23 13:02:23;;;;;;;9.37;7.87;;;;;;;;;;4937764;29;20710;-89
2021/10/23 13:04:51;;;;;;;15.60;9.33;;;;;;;;;;4937562;29;20211;-90
2021/10/23 13:07:18;;;;;;;11.63;8.33;;;;;;;;;;4936781;29;20690;-90
2021/10/23 13:09:46;;;;;;;8.67;7.77;;;;;;;;;;4937517;29;20213;-91
2021/10/23 13:12:13;;;;;;;10.63;7.87;;;;;;;;;;4949310;29;20277;-90
2021/10/23 13:14:42;;;;;;;8.50;7.23;;;;;;;;;;4956474;29;20229;-90
2021/10/23 13:17:09;;;;;;;7.63;6.83;;;;;;;;;;4956483;29;20205;-89
2021/10/23 13:19:36;;;;;;;7.83;7.07;;;;;;;;;;4956599;29;20596;-90
2021/10/23 13:22:04;;;;;;;17.77;8.10;;;;;;;;;;4956467;29;20206;-90
2021/10/23 13:24:31;;;;;;;9.37;8.47;;;;;;;;;;4956089;29;20701;-89
2021/10/23 13:26:58;;;;;;;10.17;9.00;;;;;;;;;;4956379;29;20205;-90
2021/10/23 13:29:26;;;;;;;9.30;8.40;;;;;;;;;;4956048;28;20257;-88
2021/10/23 13:31:55;;;;;;;8.80;7.90;;;;;;;;;;4955909;29;20195;-89
2021/10/23 13:34:23;;;;;;;10.80;8.83;;;;;;;;;;4956176;29;20288;-89
2021/10/23 13:36:50;;;;;;;11.53;9.73;;;;;;;;;;4956246;29;20621;-89
2021/10/23 13:39:17;;;;;;;13.83;12.37;;;;;;;;;;4955898;29;20257;-90
2021/10/23 13:41:45;;;;;;;9.47;8.50;;;;;;;;;;4956011;29;20306;-89
2021/10/23 13:44:12;;;;;;;15.20;9.67;;;;;;;;;;4956044;29;20202;-89
2021/10/23 13:46:39;;;;;;;10.33;9.20;;;;;;;;;;4956041;29;20304;-89
2021/10/23 13:49:09;;;;;;;8.60;7.73;;;;;;;;;;4955711;29;20212;-89
2021/10/23 13:51:36;;;;;;;13.77;10.10;;;;;;;;;;4955646;29;20198;-90
2021/10/23 13:54:03;;;;;;;8.60;7.90;;;;;;;;;;4955696;29;20206;-89
2021/10/23 13:56:31;;;;;;;13.33;9.10;;;;;;;;;;4955455;29;20226;-88
2021/10/23 13:58:58;;;;;;;9.10;8.27;;;;;;;;;;4955742;29;20208;-89
2021/10/23 14:01:25;;;;;;;9.00;8.13;;;;;;;;;;4955425;29;20265;-89
2021/10/23 14:03:52;;;;;;;10.23;9.20;;;;;;;;;;4955318;29;20741;-90
2021/10/23 14:06:21;;;;;;;10.47;9.57;;;;;;;;;;4955313;29;20198;-89
2021/10/23 14:08:48;;;;;;;14.07;9.33;;;;;;;;;;4953711;29;20585;-89
2021/10/23 14:11:15;;;;;;;8.57;7.77;;;;;;;;;;4955340;29;20198;-89
2021/10/23 14:13:43;;;;;;;12.77;9.90;;;;;;;;;;4955564;29;20201;-89
2021/10/23 14:16:11;;;;;;;16.37;11.90;;;;;;;;;;4953191;29;20806;-87
2021/10/23 14:18:38;;;;;;;45.30;40.50;;;;;;;;;;4954653;28;20209;-90
2021/10/23 14:21:09;;;;;;;25.37;20.60;;;;;;;;;;4955332;29;20284;-89
2021/10/23 14:23:38;;;;;;;12.10;10.77;;;;;;;;;;4955358;29;20284;-88
2021/10/23 14:26:06;;;;;;;17.23;15.40;;;;;;;;;;4954872;29;20217;-88
2021/10/23 14:28:44;;;;;;;22.07;19.97;;;;;;;;;;4955347;29;20589;-89
2021/10/23 14:31:13;;;;;;;10.27;9.33;;;;;;;;;;4954904;28;20241;-91
2021/10/23 14:33:41;;;;;;;11.63;10.47;;;;;;;;;;4955324;29;20317;-92
2021/10/23 14:36:09;;;;;;;7.67;6.90;;;;;;;;;;4954836;29;20229;-92
2021/10/23 14:38:38;;;;;;;8.30;7.40;;;;;;;;;;4954923;29;20675;-91
2021/10/23 14:41:06;;;;;;;7.60;6.90;;;;;;;;;;4954864;29;20205;-92
2021/10/23 14:43:34;;;;;;;16.43;11.53;;;;;;;;;;4955262;29;20202;-91
2021/10/23 14:46:01;;;;;;;9.17;8.27;;;;;;;;;;4954751;29;20206;-91
2021/10/23 14:48:28;;;;;;;6.97;6.37;;;;;;;;;;4954922;29;20289;-91